Time;durP1;ratioP1;P1;durP2;ratioP2;P2;SDS_P1;SDS_P2;PMS_P1;PMS_P2;Temp;Humidity;BMP_temperature;BMP_pressure;BME280_temperature;BME280_humidity;BME280_pressure;Samples;Min_cycle;Max_cycle;Signal;HPM_P1;HPM_P2
2023/04/21 00:02:26;;;;;;;10.67;7.97;;;;;;;;;;5057240;28;20242;-62
2023/04/21 00:04:55;;;;;;;10.67;7.93;;;;;;;;;;5057173;28;20547;-62
2023/04/21 00:07:23;;;;;;;10.23;7.40;;;;;;;;;;5057356;28;20235;-62
2023/04/21 00:09:51;;;;;;;10.57;7.37;;;;;;;;;;5057447;28;20207;-62
2023/04/21 00:12:20;;;;;;;11.10;7.80;;;;;;;;;;5057432;28;20203;-62
2023/04/21 00:14:48;;;;;;;10.87;7.80;;;;;;;;;;5057328;28;20209;-62
2023/04/21 00:17:16;;;;;;;11.37;7.77;;;;;;;;;;5057271;28;20693;-62
2023/04/21 00:19:44;;;;;;;10.20;7.90;;;;;;;;;;5056807;28;20266;-62
2023/04/21 00:22:13;;;;;;;11.03;8.00;;;;;;;;;;5051802;28;20203;-62
2023/04/21 00:24:41;;;;;;;12.30;8.07;;;;;;;;;;5057039;28;20245;-62
2023/04/21 00:27:10;;;;;;;10.70;7.70;;;;;;;;;;5057105;28;20313;-62
2023/04/21 00:29:39;;;;;;;13.87;7.47;;;;;;;;;;5057710;28;20203;-62
2023/04/21 00:32:08;;;;;;;11.87;7.73;;;;;;;;;;5057255;28;20203;-62
2023/04/21 00:34:36;;;;;;;13.10;7.80;;;;;;;;;;5057310;28;20213;-62
2023/04/21 00:37:04;;;;;;;8.53;7.40;;;;;;;;;;5057330;28;20227;-62
2023/04/21 00:39:32;;;;;;;11.83;7.90;;;;;;;;;;5057210;28;20227;-61
2023/04/21 00:42:01;;;;;;;9.23;7.80;;;;;;;;;;5057087;28;20215;-62
2023/04/21 00:44:29;;;;;;;11.07;8.43;;;;;;;;;;5050232;28;20207;-62
2023/04/21 00:46:58;;;;;;;9.23;7.60;;;;;;;;;;5040584;28;20240;-62
2023/04/21 00:49:26;;;;;;;10.90;7.67;;;;;;;;;;5041013;28;20208;-62
2023/04/21 00:51:54;;;;;;;10.70;7.50;;;;;;;;;;5047501;28;20238;-62
2023/04/21 00:54:24;;;;;;;9.30;6.80;;;;;;;;;;5060610;28;20576;-62
2023/04/21 00:56:52;;;;;;;10.83;7.57;;;;;;;;;;5060293;28;20258;-62
2023/04/21 00:59:20;;;;;;;11.97;8.10;;;;;;;;;;5060311;28;20584;-62
2023/04/21 01:01:48;;;;;;;9.27;7.00;;;;;;;;;;5060467;28;20653;-62
2023/04/21 01:04:17;;;;;;;11.00;7.57;;;;;;;;;;5060343;28;20551;-62
2023/04/21 01:06:45;;;;;;;10.00;7.63;;;;;;;;;;5060281;28;20593;-61
2023/04/21 01:09:13;;;;;;;10.67;8.13;;;;;;;;;;5060582;28;20222;-62
2023/04/21 01:11:41;;;;;;;11.40;7.97;;;;;;;;;;5060361;28;20210;-62
2023/04/21 01:14:09;;;;;;;12.07;8.10;;;;;;;;;;5060390;28;20218;-62
2023/04/21 01:16:37;;;;;;;9.97;8.00;;;;;;;;;;5060099;28;20254;-62
2023/04/21 01:19:05;;;;;;;11.63;8.97;;;;;;;;;;5059726;28;20302;-62
2023/04/21 01:21:40;;;;;;;12.27;7.53;;;;;;;;;;5060183;28;20203;-62
2023/04/21 01:24:08;;;;;;;13.90;9.17;;;;;;;;;;5060178;28;20634;-62
2023/04/21 01:26:36;;;;;;;10.03;8.87;;;;;;;;;;5059865;28;20219;-62
2023/04/21 01:29:04;;;;;;;12.37;8.40;;;;;;;;;;5060149;28;20203;-62
2023/04/21 01:31:32;;;;;;;13.87;8.60;;;;;;;;;;5059827;28;20210;-62
2023/04/21 01:34:03;;;;;;;11.93;8.57;;;;;;;;;;5059690;28;20260;-62
2023/04/21 01:36:31;;;;;;;12.40;8.23;;;;;;;;;;5060016;28;20227;-62
2023/04/21 01:39:00;;;;;;;10.80;7.87;;;;;;;;;;5059555;28;20258;-62
2023/04/21 01:41:28;;;;;;;9.77;8.60;;;;;;;;;;5059708;28;20233;-62
2023/04/21 01:43:56;;;;;;;12.30;8.67;;;;;;;;;;5059508;28;20225;-61
2023/04/21 01:46:24;;;;;;;12.57;8.87;;;;;;;;;;5059906;28;20243;-62
2023/04/21 01:48:52;;;;;;;11.67;8.37;;;;;;;;;;5059288;28;20739;-62
2023/04/21 01:51:20;;;;;;;11.33;8.67;;;;;;;;;;5059829;28;20211;-60
2023/04/21 01:53:48;;;;;;;11.00;8.97;;;;;;;;;;5059453;28;20246;-61
2023/04/21 01:56:18;;;;;;;10.07;8.57;;;;;;;;;;5058553;28;20250;-62
2023/04/21 01:58:46;;;;;;;12.13;8.67;;;;;;;;;;5059098;28;20234;-62
2023/04/21 02:01:14;;;;;;;9.97;8.33;;;;;;;;;;5059356;28;20621;-62
2023/04/21 02:03:42;;;;;;;12.30;8.97;;;;;;;;;;5059368;28;20221;-62
2023/04/21 02:06:10;;;;;;;10.27;8.20;;;;;;;;;;5059141;28;20721;-61
2023/04/21 02:08:38;;;;;;;9.40;7.67;;;;;;;;;;5059105;28;20211;-62
2023/04/21 02:11:06;;;;;;;14.57;8.40;;;;;;;;;;5059149;28;20662;-62
2023/04/21 02:13:35;;;;;;;11.07;7.87;;;;;;;;;;5059018;28;20230;-62
2023/04/21 02:16:03;;;;;;;10.67;8.23;;;;;;;;;;5058914;28;20725;-62
2023/04/21 02:18:41;;;;;;;8.97;7.67;;;;;;;;;;5058573;28;20230;-62
2023/04/21 02:21:09;;;;;;;8.10;6.93;;;;;;;;;;5059125;28;20260;-61
2023/04/21 02:23:37;;;;;;;10.03;7.17;;;;;;;;;;5055362;28;20202;-62
2023/04/21 02:26:05;;;;;;;10.97;7.27;;;;;;;;;;5058844;28;20277;-62
2023/04/21 02:28:33;;;;;;;9.03;7.57;;;;;;;;;;5058617;28;20620;-62
2023/04/21 02:31:02;;;;;;;9.00;7.53;;;;;;;;;;5058914;28;20203;-62
2023/04/21 02:33:30;;;;;;;9.57;7.77;;;;;;;;;;5058950;28;20207;-62
2023/04/21 02:35:58;;;;;;;8.87;7.60;;;;;;;;;;5058520;28;20579;-62
2023/04/21 02:38:26;;;;;;;9.30;7.43;;;;;;;;;;5058596;28;20633;-62
2023/04/21 02:40:54;;;;;;;11.80;7.63;;;;;;;;;;5058398;28;20607;-61
2023/04/21 02:43:22;;;;;;;12.20;7.97;;;;;;;;;;5058347;28;20619;-62
2023/04/21 02:45:51;;;;;;;10.87;7.80;;;;;;;;;;5058282;28;20262;-62
2023/04/21 02:48:21;;;;;;;10.40;7.60;;;;;;;;;;5058318;28;20271;-62
2023/04/21 02:50:49;;;;;;;10.77;8.30;;;;;;;;;;5058559;28;20203;-62
2023/04/21 02:53:17;;;;;;;11.57;8.37;;;;;;;;;;5058634;28;20294;-62
2023/04/21 02:55:45;;;;;;;13.57;8.47;;;;;;;;;;5058056;28;20629;-62
2023/04/21 02:58:13;;;;;;;12.67;8.77;;;;;;;;;;5058122;28;20272;-62
2023/04/21 03:00:41;;;;;;;11.80;8.77;;;;;;;;;;5057991;28;20365;-62
2023/04/21 03:03:09;;;;;;;10.17;8.60;;;;;;;;;;5058109;28;20660;-62
2023/04/21 03:05:39;;;;;;;10.03;8.07;;;;;;;;;;5058222;28;20222;-62
2023/04/21 03:08:07;;;;;;;11.07;8.80;;;;;;;;;;5058257;28;20213;-62
2023/04/21 03:10:36;;;;;;;9.63;8.63;;;;;;;;;;5058224;28;20237;-62
2023/04/21 03:13:04;;;;;;;11.63;8.63;;;;;;;;;;5057715;28;20207;-62
2023/04/21 03:15:32;;;;;;;10.13;8.03;;;;;;;;;;5058141;28;20262;-61
2023/04/21 03:18:00;;;;;;;11.30;8.87;;;;;;;;;;5057808;28;20329;-62
2023/04/21 03:20:28;;;;;;;13.37;8.53;;;;;;;;;;5057830;28;20728;-62
2023/04/21 03:22:58;;;;;;;10.70;8.90;;;;;;;;;;5058029;28;20203;-62
2023/04/21 03:25:26;;;;;;;11.80;8.67;;;;;;;;;;5057758;28;20608;-61
2023/04/21 03:27:54;;;;;;;10.57;8.53;;;;;;;;;;5057467;28;20289;-62
2023/04/21 03:30:22;;;;;;;10.47;8.23;;;;;;;;;;5057981;28;20289;-62
2023/04/21 03:32:50;;;;;;;10.20;8.50;;;;;;;;;;5057788;28;20202;-62
2023/04/21 03:35:18;;;;;;;9.63;8.23;;;;;;;;;;5057991;28;20261;-62
2023/04/21 03:37:46;;;;;;;11.03;8.33;;;;;;;;;;5057609;28;20222;-62
2023/04/21 03:40:16;;;;;;;10.53;8.00;;;;;;;;;;5057588;28;20227;-62
2023/04/21 03:42:44;;;;;;;10.40;8.47;;;;;;;;;;5057296;28;20741;-62
2023/04/21 03:45:12;;;;;;;9.67;7.93;;;;;;;;;;5057744;28;20231;-62
2023/04/21 03:47:39;;;;;;;12.40;8.30;;;;;;;;;;5057578;28;20206;-62
2023/04/21 03:50:08;;;;;;;10.00;7.97;;;;;;;;;;5057544;28;20551;-62
2023/04/21 03:52:36;;;;;;;11.13;8.00;;;;;;;;;;5057378;28;20214;-62
2023/04/21 03:55:10;;;;;;;11.40;8.73;;;;;;;;;;5057416;28;20265;-62
2023/04/21 03:57:40;;;;;;;11.27;8.40;;;;;;;;;;5057525;28;20210;-62
2023/04/21 04:00:09;;;;;;;11.33;7.93;;;;;;;;;;5057200;28;20223;-62
2023/04/21 04:02:37;;;;;;;13.23;8.20;;;;;;;;;;5057372;28;20211;-62
2023/04/21 04:05:06;;;;;;;9.30;7.83;;;;;;;;;;5057483;28;20227;-62
2023/04/21 04:07:35;;;;;;;10.93;8.00;;;;;;;;;;5057650;28;20213;-62
2023/04/21 04:10:03;;;;;;;11.03;8.67;;;;;;;;;;5057225;28;20689;-62
2023/04/21 04:12:31;;;;;;;10.03;8.00;;;;;;;;;;5057220;28;20210;-62
2023/04/21 04:15:01;;;;;;;15.13;9.27;;;;;;;;;;5057437;28;20210;-62
2023/04/21 04:17:29;;;;;;;15.53;8.67;;;;;;;;;;5057447;28;20245;-62
2023/04/21 04:19:57;;;;;;;11.27;7.90;;;;;;;;;;5018313;28;20315;-62
2023/04/21 04:22:25;;;;;;;14.20;8.97;;;;;;;;;;5019869;28;20211;-62
2023/04/21 04:24:54;;;;;;;12.33;7.73;;;;;;;;;;5023209;28;20204;-62
2023/04/21 04:27:22;;;;;;;12.67;8.13;;;;;;;;;;5005456;28;20719;-62
2023/04/21 04:29:50;;;;;;;10.67;7.60;;;;;;;;;;5001957;28;20215;-62
2023/04/21 04:32:19;;;;;;;12.10;8.53;;;;;;;;;;5001490;28;20296;-62
2023/04/21 04:34:47;;;;;;;9.73;8.03;;;;;;;;;;5001819;28;20208;-62
2023/04/21 04:37:15;;;;;;;13.20;8.50;;;;;;;;;;5001701;28;20222;-61
2023/04/21 04:39:43;;;;;;;10.83;7.53;;;;;;;;;;5001767;28;20271;-62
2023/04/21 04:42:11;;;;;;;9.83;7.70;;;;;;;;;;5001219;28;20259;-62
2023/04/21 04:44:40;;;;;;;11.40;8.57;;;;;;;;;;5001413;28;20209;-62
2023/04/21 04:47:08;;;;;;;8.40;7.13;;;;;;;;;;5001345;28;20283;-62
2023/04/21 04:49:37;;;;;;;9.00;6.83;;;;;;;;;;5001262;28;20209;-62
2023/04/21 04:52:05;;;;;;;18.20;15.23;;;;;;;;;;5001736;28;20237;-62
2023/04/21 04:54:33;;;;;;;12.10;8.57;;;;;;;;;;5008423;28;20627;-62
2023/04/21 04:57:02;;;;;;;11.43;7.97;;;;;;;;;;5013199;28;20267;-62
2023/04/21 04:59:30;;;;;;;11.83;8.13;;;;;;;;;;5008408;28;20296;-62
2023/04/21 05:01:58;;;;;;;10.43;7.47;;;;;;;;;;5001316;28;20231;-61
2023/04/21 05:04:26;;;;;;;9.87;7.87;;;;;;;;;;5001151;28;20292;-62
2023/04/21 05:06:56;;;;;;;8.57;7.13;;;;;;;;;;5000898;28;20233;-62
2023/04/21 05:09:24;;;;;;;8.97;7.20;;;;;;;;;;5000999;28;20227;-62
2023/04/21 05:11:52;;;;;;;8.97;7.30;;;;;;;;;;5001968;28;20201;-62
2023/04/21 05:14:20;;;;;;;8.87;7.47;;;;;;;;;;5020539;28;20208;-62
2023/04/21 05:16:49;;;;;;;8.87;7.00;;;;;;;;;;5020649;28;20626;-62
2023/04/21 05:19:17;;;;;;;11.93;7.77;;;;;;;;;;5040502;28;20239;-62
2023/04/21 05:21:45;;;;;;;11.17;7.77;;;;;;;;;;5055681;28;20341;-62
2023/04/21 05:24:15;;;;;;;9.60;8.00;;;;;;;;;;5040225;28;20215;-62
2023/04/21 05:26:43;;;;;;;9.00;6.93;;;;;;;;;;5050109;28;20223;-62
2023/04/21 05:29:11;;;;;;;10.17;7.67;;;;;;;;;;5060177;28;20209;-62
2023/04/21 05:31:38;;;;;;;10.77;7.33;;;;;;;;;;5059950;28;20207;-62
2023/04/21 05:34:06;;;;;;;10.60;7.13;;;;;;;;;;5059696;28;20214;-62
2023/04/21 05:36:35;;;;;;;10.30;6.87;;;;;;;;;;5059569;28;20741;-62
2023/04/21 05:39:02;;;;;;;8.43;7.10;;;;;;;;;;5059682;28;20229;-62
2023/04/21 05:41:32;;;;;;;12.70;7.43;;;;;;;;;;5059519;28;20237;-62
2023/04/21 05:44:00;;;;;;;9.13;6.93;;;;;;;;;;5059562;28;20203;-62
2023/04/21 05:46:29;;;;;;;7.67;6.23;;;;;;;;;;5059573;28;20284;-62
2023/04/21 05:48:57;;;;;;;7.93;6.90;;;;;;;;;;5059730;28;20206;-62
2023/04/21 05:51:25;;;;;;;12.43;7.70;;;;;;;;;;5059415;28;20632;-62
2023/04/21 05:53:53;;;;;;;9.30;7.13;;;;;;;;;;5059429;28;20750;-62
2023/04/21 05:56:21;;;;;;;9.07;7.50;;;;;;;;;;5059022;28;20593;-62
2023/04/21 05:58:51;;;;;;;9.03;6.47;;;;;;;;;;5059660;28;20241;-62
2023/04/21 06:01:19;;;;;;;9.80;7.27;;;;;;;;;;5059304;28;20276;-62
2023/04/21 06:03:48;;;;;;;8.03;7.10;;;;;;;;;;5059199;28;20245;-62
2023/04/21 06:06:17;;;;;;;9.57;7.40;;;;;;;;;;5059323;28;20227;-62
2023/04/21 06:08:45;;;;;;;8.53;7.40;;;;;;;;;;5059326;28;20297;-62
2023/04/21 06:11:13;;;;;;;10.67;6.83;;;;;;;;;;5054660;28;20660;-62
2023/04/21 06:13:41;;;;;;;8.90;7.97;;;;;;;;;;5052709;28;20246;-62
2023/04/21 06:16:11;;;;;;;9.10;6.87;;;;;;;;;;5054182;28;20248;-62
2023/04/21 06:18:40;;;;;;;13.03;8.20;;;;;;;;;;5048215;28;20256;-62
2023/04/21 06:21:11;;;;;;;9.87;7.03;;;;;;;;;;5048312;28;20227;-62
2023/04/21 06:23:40;;;;;;;13.57;8.23;;;;;;;;;;5047068;28;20199;-62
2023/04/21 06:26:08;;;;;;;12.73;7.63;;;;;;;;;;5055423;28;20257;-62
2023/04/21 06:28:38;;;;;;;9.53;7.33;;;;;;;;;;5058642;28;20245;-62
2023/04/21 06:31:06;;;;;;;14.00;7.80;;;;;;;;;;5058391;28;20688;-62
2023/04/21 06:33:37;;;;;;;9.83;7.30;;;;;;;;;;5058066;28;20241;-62
2023/04/21 06:36:05;;;;;;;9.80;7.17;;;;;;;;;;5045457;28;20227;-62
2023/04/21 06:38:33;;;;;;;10.10;8.20;;;;;;;;;;5038692;28;20270;-62
2023/04/21 06:41:03;;;;;;;11.10;8.40;;;;;;;;;;5049655;28;20203;-62
2023/04/21 06:43:31;;;;;;;12.33;8.67;;;;;;;;;;5055586;28;20226;-62
2023/04/21 06:45:59;;;;;;;11.80;7.87;;;;;;;;;;5054207;28;20294;-62
2023/04/21 06:48:28;;;;;;;10.27;7.87;;;;;;;;;;5052106;28;20633;-62
2023/04/21 06:50:59;;;;;;;11.97;9.33;;;;;;;;;;5052370;28;20225;-62
2023/04/21 06:53:27;;;;;;;11.00;8.50;;;;;;;;;;5054132;28;20568;-62
2023/04/21 06:55:55;;;;;;;10.80;8.70;;;;;;;;;;5055558;28;20223;-62
2023/04/21 06:58:23;;;;;;;10.83;8.60;;;;;;;;;;5051787;28;20267;-62
2023/04/21 07:00:51;;;;;;;12.17;9.07;;;;;;;;;;5054456;28;20214;-62
2023/04/21 07:03:19;;;;;;;14.43;11.47;;;;;;;;;;5056338;28;20227;-62
2023/04/21 07:05:47;;;;;;;15.33;8.57;;;;;;;;;;5052294;28;20597;-61
2023/04/21 07:08:16;;;;;;;12.97;9.00;;;;;;;;;;5054971;28;20207;-65
2023/04/21 07:10:45;;;;;;;12.67;8.80;;;;;;;;;;5050585;28;20195;-64
2023/04/21 07:13:12;;;;;;;10.60;8.47;;;;;;;;;;5037635;28;20217;-63
2023/04/21 07:15:41;;;;;;;16.63;8.60;;;;;;;;;;5043514;28;20280;-63
2023/04/21 07:18:08;;;;;;;13.40;9.37;;;;;;;;;;5057829;28;20242;-63
2023/04/21 07:20:36;;;;;;;10.60;8.60;;;;;;;;;;5057828;28;20674;-62
2023/04/21 07:23:05;;;;;;;10.73;8.10;;;;;;;;;;5058006;28;20230;-63
2023/04/21 07:25:34;;;;;;;14.07;9.10;;;;;;;;;;5047598;28;20293;-64
2023/04/21 07:28:02;;;;;;;15.33;8.77;;;;;;;;;;5054379;28;20209;-64
2023/04/21 07:30:30;;;;;;;11.63;9.10;;;;;;;;;;5056322;28;20202;-65
2023/04/21 07:32:59;;;;;;;14.97;8.33;;;;;;;;;;5052004;28;20261;-65
2023/04/21 07:35:27;;;;;;;10.37;7.77;;;;;;;;;;5051554;28;20235;-65
2023/04/21 07:37:55;;;;;;;9.50;8.50;;;;;;;;;;5056368;28;20290;-66
2023/04/21 07:40:23;;;;;;;16.47;9.37;;;;;;;;;;5053141;28;20241;-66
2023/04/21 07:42:53;;;;;;;11.73;8.87;;;;;;;;;;5057138;28;20226;-66
2023/04/21 07:45:20;;;;;;;11.60;9.37;;;;;;;;;;5041964;28;20227;-66
2023/04/21 07:47:48;;;;;;;11.63;9.40;;;;;;;;;;5037782;28;20217;-66
2023/04/21 07:50:16;;;;;;;14.83;9.73;;;;;;;;;;5037610;28;20592;-65
2023/04/21 07:52:44;;;;;;;12.40;9.40;;;;;;;;;;5037582;28;20258;-65
2023/04/21 07:55:13;;;;;;;12.33;9.67;;;;;;;;;;5045064;28;20223;-66
2023/04/21 07:57:41;;;;;;;13.03;8.63;;;;;;;;;;5041391;28;20290;-66
2023/04/21 08:00:11;;;;;;;17.07;9.23;;;;;;;;;;5059089;28;20294;-65
2023/04/21 08:02:39;;;;;;;14.37;9.27;;;;;;;;;;5051961;28;20218;-67
2023/04/21 08:05:07;;;;;;;11.90;8.33;;;;;;;;;;5059141;28;20223;-67
2023/04/21 08:07:36;;;;;;;10.60;8.77;;;;;;;;;;5057192;28;20234;-68
2023/04/21 08:10:05;;;;;;;12.33;9.27;;;;;;;;;;5052574;28;20203;-72
2023/04/21 08:12:33;;;;;;;13.20;9.00;;;;;;;;;;5057989;28;20195;-70
2023/04/21 08:15:04;;;;;;;17.63;9.40;;;;;;;;;;5056016;28;20226;-65
2023/04/21 08:17:38;;;;;;;12.23;8.53;;;;;;;;;;5059162;28;20226;-66
2023/04/21 08:20:09;;;;;;;14.87;9.43;;;;;;;;;;5055044;28;20221;-64
2023/04/21 08:22:37;;;;;;;13.67;9.20;;;;;;;;;;5059826;28;20221;-65
2023/04/21 08:25:06;;;;;;;14.47;9.23;;;;;;;;;;5050823;28;20254;-65
2023/04/21 08:27:34;;;;;;;12.53;8.97;;;;;;;;;;5054398;28;20237;-64
2023/04/21 08:30:02;;;;;;;13.07;9.30;;;;;;;;;;5059455;28;20235;-64
2023/04/21 08:32:30;;;;;;;12.60;9.73;;;;;;;;;;5055635;28;20199;-65
2023/04/21 08:34:59;;;;;;;10.93;9.50;;;;;;;;;;5052299;28;20539;-64
2023/04/21 08:37:28;;;;;;;14.53;9.87;;;;;;;;;;5056390;28;20660;-64
2023/04/21 08:39:56;;;;;;;14.17;11.50;;;;;;;;;;5051587;28;20249;-65
2023/04/21 08:42:24;;;;;;;12.47;9.60;;;;;;;;;;5057883;28;20214;-65
2023/04/21 08:44:52;;;;;;;14.17;10.07;;;;;;;;;;5054495;28;20282;-65
2023/04/21 08:47:20;;;;;;;13.50;10.33;;;;;;;;;;5058881;28;20281;-65
2023/04/21 08:49:50;;;;;;;17.17;12.10;;;;;;;;;;5054410;28;20210;-65
2023/04/21 08:52:19;;;;;;;12.53;10.00;;;;;;;;;;5058484;28;20267;-65
2023/04/21 08:54:50;;;;;;;14.40;10.13;;;;;;;;;;5061455;28;20285;-65
2023/04/21 08:57:19;;;;;;;13.63;10.27;;;;;;;;;;5051548;28;20222;-65
2023/04/21 08:59:48;;;;;;;14.53;9.47;;;;;;;;;;5059442;28;20561;-65
2023/04/21 09:02:16;;;;;;;13.17;9.40;;;;;;;;;;5051328;28;20207;-65
2023/04/21 09:04:45;;;;;;;20.30;9.77;;;;;;;;;;5056828;28;20200;-65
2023/04/21 09:07:31;;;;;;;14.57;9.27;;;;;;;;;;5054292;28;20294;-63
2023/04/21 09:10:00;;;;;;;12.17;9.37;;;;;;;;;;5053483;28;20206;-63
2023/04/21 09:12:29;;;;;;;16.57;10.00;;;;;;;;;;5051717;28;20280;-64
2023/04/21 09:14:58;;;;;;;11.30;9.37;;;;;;;;;;5058679;28;20225;-65
2023/04/21 09:17:31;;;;;;;11.10;9.33;;;;;;;;;;5052199;28;20203;-64
2023/04/21 09:20:11;;;;;;;12.70;9.37;;;;;;;;;;5055763;28;20214;-64
2023/04/21 09:22:41;;;;;;;13.93;10.43;;;;;;;;;;5057192;28;20709;-64
2023/04/21 09:25:09;;;;;;;10.00;8.40;;;;;;;;;;5056794;28;20257;-64
2023/04/21 09:27:37;;;;;;;9.87;7.83;;;;;;;;;;5053873;28;20256;-64
2023/04/21 09:30:06;;;;;;;21.47;9.37;;;;;;;;;;5051142;28;20279;-64
2023/04/21 09:32:37;;;;;;;18.47;8.73;;;;;;;;;;5055553;28;20658;-64
2023/04/21 09:35:06;;;;;;;18.73;8.60;;;;;;;;;;5053429;28;20690;-64
2023/04/21 09:37:34;;;;;;;14.17;7.37;;;;;;;;;;5053851;28;20195;-64
2023/04/21 09:40:04;;;;;;;12.13;7.37;;;;;;;;;;5053478;28;20225;-64
2023/04/21 09:42:33;;;;;;;8.93;6.73;;;;;;;;;;5058418;28;20207;-64
2023/04/21 09:45:08;;;;;;;5.47;4.23;;;;;;;;;;5056734;28;20643;-64
2023/04/21 09:47:57;;;;;;;5.67;4.27;;;;;;;;;;5051850;28;20570;-64
2023/04/21 09:50:25;;;;;;;3.97;2.87;;;;;;;;;;5056195;28;20199;-65
2023/04/21 09:53:14;;;;;;;2.77;2.50;;;;;;;;;;5056022;28;20199;-65
2023/04/21 09:55:47;;;;;;;3.47;2.50;;;;;;;;;;5056607;28;20576;-63
2023/04/21 09:58:16;;;;;;;2.20;2.00;;;;;;;;;;5059276;28;20207;-63
2023/04/21 10:00:44;;;;;;;2.50;2.10;;;;;;;;;;5059711;28;20207;-63
2023/04/21 10:03:13;;;;;;;5.00;2.20;;;;;;;;;;5055025;28;20305;-63
2023/04/21 10:05:41;;;;;;;3.23;1.83;;;;;;;;;;5056210;28;20694;-63
2023/04/21 10:08:10;;;;;;;1.97;1.77;;;;;;;;;;5056129;28;20278;-62
2023/04/21 10:10:38;;;;;;;2.50;1.70;;;;;;;;;;5051946;28;20204;-63
2023/04/21 10:13:13;;;;;;;4.37;2.10;;;;;;;;;;5039957;28;20631;-64
2023/04/21 10:15:41;;;;;;;1.97;1.63;;;;;;;;;;5051277;28;20257;-65
2023/04/21 10:18:13;;;;;;;13.77;3.20;;;;;;;;;;5045228;28;20273;-64
2023/04/21 10:20:53;;;;;;;24.40;4.80;;;;;;;;;;5058904;28;20637;-64
2023/04/21 10:23:28;;;;;;;14.77;4.20;;;;;;;;;;5058833;28;20262;-69
2023/04/21 10:26:01;;;;;;;4.33;2.17;;;;;;;;;;5053789;28;20611;-64
2023/04/21 10:28:44;;;;;;;4.83;2.10;;;;;;;;;;5058929;28;20222;-65
2023/04/21 10:31:17;;;;;;;2.50;2.20;;;;;;;;;;5059003;28;20261;-63
2023/04/21 10:33:59;;;;;;;2.50;1.80;;;;;;;;;;5058801;28;20199;-64
2023/04/21 10:36:27;;;;;;;3.70;1.90;;;;;;;;;;5057890;28;20309;-64
2023/04/21 10:38:55;;;;;;;2.47;2.37;;;;;;;;;;5058691;28;20210;-65
2023/04/21 10:41:27;;;;;;;4.43;1.87;;;;;;;;;;5058656;28;20207;-65
2023/04/21 10:43:59;;;;;;;2.80;2.00;;;;;;;;;;5058315;28;20342;-65
2023/04/21 10:46:34;;;;;;;3.70;1.90;;;;;;;;;;5052669;28;20251;-65
2023/04/21 10:49:06;;;;;;;2.50;1.97;;;;;;;;;;5056257;28;20228;-65
2023/04/21 10:51:55;;;;;;;1.80;1.70;;;;;;;;;;5057437;28;20289;-65
2023/04/21 10:54:24;;;;;;;1.83;1.73;;;;;;;;;;5058121;28;20685;-65
2023/04/21 10:56:53;;;;;;;47.00;11.23;;;;;;;;;;5058218;28;20242;-65
2023/04/21 10:59:23;;;;;;;16.90;4.63;;;;;;;;;;5058380;28;20217;-65
2023/04/21 11:01:51;;;;;;;47.43;11.60;;;;;;;;;;5058014;28;20574;-65
2023/04/21 11:04:19;;;;;;;58.97;13.00;;;;;;;;;;5058131;28;20231;-65
2023/04/21 11:07:06;;;;;;;14.77;5.00;;;;;;;;;;5057929;28;20223;-65
2023/04/21 11:09:37;;;;;;;11.13;3.90;;;;;;;;;;5056079;28;20729;-65
2023/04/21 11:12:07;;;;;;;3.40;2.17;;;;;;;;;;5057545;28;20271;-65
2023/04/21 11:14:37;;;;;;;3.50;3.20;;;;;;;;;;5043156;28;20671;-65
2023/04/21 11:17:10;;;;;;;1.70;1.60;;;;;;;;;;5056372;28;20222;-64
2023/04/21 11:19:38;;;;;;;3.57;1.83;;;;;;;;;;5057323;28;20768;-65
2023/04/21 11:22:06;;;;;;;2.30;1.97;;;;;;;;;;5057629;28;20650;-64
2023/04/21 11:24:35;;;;;;;3.20;2.73;;;;;;;;;;5056762;28;20223;-63
2023/04/21 11:27:04;;;;;;;2.90;1.80;;;;;;;;;;5057295;28;20264;-65
2023/04/21 11:29:33;;;;;;;4.93;1.67;;;;;;;;;;5057341;28;20535;-65
2023/04/21 11:32:05;;;;;;;3.67;2.00;;;;;;;;;;5057476;28;20237;-63
2023/04/21 11:34:33;;;;;;;2.37;2.20;;;;;;;;;;5056330;28;20209;-66
2023/04/21 11:37:01;;;;;;;2.47;2.07;;;;;;;;;;5057289;28;20218;-66
2023/04/21 11:39:29;;;;;;;1.87;1.63;;;;;;;;;;5057623;28;20199;-66
2023/04/21 11:41:57;;;;;;;2.67;2.33;;;;;;;;;;5057359;28;20293;-66
2023/04/21 11:44:32;;;;;;;2.40;1.77;;;;;;;;;;5057103;28;20294;-66
2023/04/21 11:47:00;;;;;;;2.00;1.90;;;;;;;;;;5052223;28;20218;-66
2023/04/21 11:49:31;;;;;;;2.00;1.90;;;;;;;;;;5057247;28;20631;-66
2023/04/21 11:51:59;;;;;;;3.27;2.20;;;;;;;;;;5057693;28;20241;-66
2023/04/21 11:54:29;;;;;;;3.17;1.87;;;;;;;;;;5057569;28;20214;-66
2023/04/21 11:56:57;;;;;;;2.87;2.13;;;;;;;;;;5057382;28;20233;-66
2023/04/21 11:59:31;;;;;;;2.67;2.00;;;;;;;;;;5057301;28;20218;-66
2023/04/21 12:01:59;;;;;;;2.83;1.63;;;;;;;;;;5049851;28;20678;-66
2023/04/21 12:04:27;;;;;;;2.00;1.83;;;;;;;;;;5050607;28;20297;-66
2023/04/21 12:07:00;;;;;;;5.13;1.80;;;;;;;;;;5037289;28;20306;-66
2023/04/21 12:09:29;;;;;;;1.70;1.57;;;;;;;;;;5037406;28;20204;-66
2023/04/21 12:11:57;;;;;;;3.30;1.83;;;;;;;;;;5037112;28;20216;-66
2023/04/21 12:14:26;;;;;;;3.40;2.07;;;;;;;;;;5037346;28;20234;-66
2023/04/21 12:16:55;;;;;;;2.90;2.13;;;;;;;;;;5044194;28;20314;-66
2023/04/21 12:19:25;;;;;;;1.93;1.73;;;;;;;;;;5054746;28;20263;-67
2023/04/21 12:21:54;;;;;;;2.57;2.30;;;;;;;;;;5051577;28;20238;-65
2023/04/21 12:24:23;;;;;;;2.10;1.93;;;;;;;;;;5057203;28;20226;-66
2023/04/21 12:26:51;;;;;;;3.20;1.97;;;;;;;;;;5065821;28;20226;-66
2023/04/21 12:29:19;;;;;;;3.03;1.83;;;;;;;;;;5046923;28;20290;-66
2023/04/21 12:31:47;;;;;;;6.73;2.00;;;;;;;;;;5037143;28;20241;-66
2023/04/21 12:34:15;;;;;;;4.40;2.13;;;;;;;;;;5037095;28;20761;-66
2023/04/21 12:36:43;;;;;;;2.07;1.70;;;;;;;;;;5037232;28;20228;-66
2023/04/21 12:39:12;;;;;;;2.10;1.90;;;;;;;;;;5037361;28;20215;-66
2023/04/21 12:41:41;;;;;;;2.37;2.07;;;;;;;;;;5050030;28;20294;-66
2023/04/21 12:44:09;;;;;;;3.70;2.23;;;;;;;;;;5060742;28;20206;-66
2023/04/21 12:46:37;;;;;;;4.30;1.80;;;;;;;;;;5060778;28;20223;-66
2023/04/21 12:49:06;;;;;;;3.10;1.83;;;;;;;;;;5060827;28;20282;-65
2023/04/21 12:51:34;;;;;;;2.10;1.90;;;;;;;;;;5060931;28;20202;-66
2023/04/21 12:54:02;;;;;;;2.57;2.10;;;;;;;;;;5060505;28;20207;-66
2023/04/21 12:56:30;;;;;;;2.10;1.83;;;;;;;;;;5060235;28;20260;-65
2023/04/21 12:59:00;;;;;;;4.10;2.10;;;;;;;;;;5060508;28;20669;-66
2023/04/21 13:01:28;;;;;;;1.67;1.57;;;;;;;;;;5051204;28;20207;-66
2023/04/21 13:03:56;;;;;;;3.30;2.03;;;;;;;;;;5040341;28;20214;-66
2023/04/21 13:06:25;;;;;;;2.20;2.03;;;;;;;;;;5040493;28;20242;-66
2023/04/21 13:08:52;;;;;;;2.27;1.73;;;;;;;;;;5040574;28;20208;-65
2023/04/21 13:11:20;;;;;;;3.80;2.00;;;;;;;;;;5052935;28;20238;-66
2023/04/21 13:13:48;;;;;;;2.00;1.90;;;;;;;;;;5059553;28;20569;-66
2023/04/21 13:16:18;;;;;;;4.93;1.90;;;;;;;;;;5060488;28;20227;-66
2023/04/21 13:18:46;;;;;;;2.20;2.00;;;;;;;;;;5059727;28;20239;-66
2023/04/21 13:21:14;;;;;;;1.80;1.70;;;;;;;;;;5060312;28;20213;-66
2023/04/21 13:23:42;;;;;;;1.70;1.60;;;;;;;;;;5059905;28;20226;-66
2023/04/21 13:26:10;;;;;;;4.60;1.87;;;;;;;;;;5058766;28;20246;-66
2023/04/21 13:28:38;;;;;;;3.07;2.00;;;;;;;;;;5059856;28;20222;-66
2023/04/21 13:31:06;;;;;;;3.63;1.93;;;;;;;;;;5060237;28;20211;-66
2023/04/21 13:33:36;;;;;;;3.13;1.80;;;;;;;;;;5059686;28;20226;-66
2023/04/21 13:36:04;;;;;;;2.40;2.10;;;;;;;;;;5059641;28;20694;-66
2023/04/21 13:38:32;;;;;;;2.07;1.87;;;;;;;;;;5060012;28;20218;-66
2023/04/21 13:41:00;;;;;;;3.77;2.20;;;;;;;;;;5059738;28;20214;-66
2023/04/21 13:43:28;;;;;;;2.50;1.80;;;;;;;;;;5059884;28;20238;-66
2023/04/21 13:45:57;;;;;;;2.03;1.93;;;;;;;;;;5056732;28;20601;-65
2023/04/21 13:48:25;;;;;;;6.33;1.87;;;;;;;;;;5053453;28;20199;-66
2023/04/21 13:50:54;;;;;;;2.13;1.90;;;;;;;;;;5059700;28;20208;-66
2023/04/21 13:53:22;;;;;;;2.30;2.10;;;;;;;;;;5058431;28;20214;-66
2023/04/21 13:55:51;;;;;;;2.77;2.10;;;;;;;;;;5054966;28;20709;-66
2023/04/21 13:58:19;;;;;;;2.33;1.90;;;;;;;;;;5042635;28;20207;-66
2023/04/21 14:00:47;;;;;;;2.10;1.90;;;;;;;;;;5059537;28;20241;-66
2023/04/21 14:03:15;;;;;;;3.03;1.90;;;;;;;;;;5058371;28;20254;-66
2023/04/21 14:05:43;;;;;;;1.93;1.83;;;;;;;;;;5041779;28;20314;-66
2023/04/21 14:08:13;;;;;;;3.00;1.80;;;;;;;;;;5039427;28;20207;-66
2023/04/21 14:10:41;;;;;;;2.77;2.50;;;;;;;;;;5052068;28;20570;-67
2023/04/21 14:13:09;;;;;;;2.13;1.83;;;;;;;;;;5059372;28;20217;-66
2023/04/21 14:15:53;;;;;;;4.53;1.90;;;;;;;;;;5058488;28;20223;-66
2023/04/21 14:18:21;;;;;;;3.47;1.63;;;;;;;;;;5053090;28;20234;-66
2023/04/21 14:20:50;;;;;;;2.10;1.70;;;;;;;;;;5039326;28;20294;-66
2023/04/21 14:23:19;;;;;;;2.77;1.90;;;;;;;;;;5041086;28;20208;-66
2023/04/21 14:25:47;;;;;;;2.87;1.90;;;;;;;;;;5058757;28;20231;-66
2023/04/21 14:28:15;;;;;;;27.77;2.30;;;;;;;;;;5059455;28;20209;-66
2023/04/21 14:30:43;;;;;;;1.83;1.63;;;;;;;;;;5057181;28;20207;-66
2023/04/21 14:33:11;;;;;;;2.10;2.00;;;;;;;;;;5058043;28;20210;-66
2023/04/21 14:35:39;;;;;;;1.50;1.40;;;;;;;;;;5058745;28;20227;-66
2023/04/21 14:38:07;;;;;;;1.60;1.47;;;;;;;;;;5058817;28;20207;-66
2023/04/21 14:40:37;;;;;;;4.90;1.90;;;;;;;;;;5058580;28;20240;-66
2023/04/21 14:43:05;;;;;;;1.70;1.53;;;;;;;;;;5058506;28;20211;-66
2023/04/21 14:45:33;;;;;;;1.70;1.60;;;;;;;;;;5058358;28;20266;-66
2023/04/21 14:48:01;;;;;;;2.73;1.30;;;;;;;;;;5058525;28;20210;-66